createdAt,value
2019-05-20T00:03:17.714Z,100270.46
2019-05-20T00:06:40.878Z,100264.86
2019-05-20T00:10:05.096Z,100266.89
2019-05-20T00:13:28.609Z,100261.48
2019-05-20T00:16:51.702Z,100265.52
2019-05-20T00:20:14.787Z,100268.94
2019-05-20T00:23:37.845Z,100272.38
2019-05-20T00:27:01.077Z,100273.02
2019-05-20T00:30:24.231Z,100266.22
2019-05-20T00:33:47.642Z,100271.36
2019-05-20T00:37:12.279Z,100269.05
2019-05-20T00:40:35.426Z,100268.58
2019-05-20T00:43:58.839Z,100270.64
2019-05-20T00:47:21.908Z,100269.75
2019-05-20T00:50:45.002Z,100266.02
2019-05-20T00:54:08.296Z,100259.78
2019-05-20T00:57:31.682Z,100264.53
2019-05-20T01:00:54.761Z,100262.66
2019-05-20T01:04:17.865Z,100259.96
2019-05-20T01:07:41.276Z,100261.02
2019-05-20T01:11:04.371Z,100265.39
2019-05-20T01:14:27.560Z,100270.16
2019-05-20T01:17:50.950Z,100271.61
2019-05-20T01:21:14.060Z,100271.27
2019-05-20T01:24:37.143Z,100270.27
2019-05-20T01:28:00.619Z,100268.01
2019-05-20T01:31:23.786Z,100268.84
2019-05-20T01:34:46.983Z,100275.70
2019-05-20T01:38:10.397Z,100281.75
2019-05-20T01:41:34.671Z,100284.16
2019-05-20T01:44:57.728Z,100284.77
2019-05-20T01:48:21.827Z,100277.92
2019-05-20T01:52:18.201Z,100279.02
2019-05-20T01:55:41.310Z,100281.81
2019-05-20T01:59:04.431Z,100285.55
2019-05-20T02:02:27.648Z,100277.89
2019-05-20T02:05:51.054Z,100281.16
2019-05-20T02:09:15.389Z,100281.31
2019-05-20T02:12:38.466Z,100268.93
2019-05-20T02:16:05.534Z,100270.75
2019-05-20T02:19:28.758Z,100274.37
2019-05-20T02:22:54.227Z,100279.45
2019-05-20T02:26:17.336Z,100279.05
2019-05-20T02:29:40.452Z,100283.40
2019-05-20T02:33:03.706Z,100289.54
2019-05-20T02:36:26.792Z,100285.36
2019-05-20T02:39:49.958Z,100288.69
2019-05-20T02:43:13.048Z,100291.52
2019-05-20T02:46:36.263Z,100297.96
2019-05-20T02:49:59.400Z,100292.23
2019-05-20T02:53:22.507Z,100290.37
2019-05-20T02:56:45.690Z,100296.75
2019-05-20T03:00:09.178Z,100302.54
2019-05-20T03:03:32.247Z,100299.43
2019-05-20T03:06:55.349Z,100300.84
2019-05-20T03:10:18.424Z,100294.69
2019-05-20T03:13:41.522Z,100294.67
2019-05-20T03:17:04.666Z,100296.40
2019-05-20T03:20:27.781Z,100298.17
2019-05-20T03:23:50.865Z,100304.56
2019-05-20T03:27:13.956Z,100317.91
2019-05-20T03:30:38.044Z,100315.63
2019-05-20T03:34:01.195Z,100319.97
2019-05-20T03:37:24.425Z,100316.76
2019-05-20T03:40:47.710Z,100311.90
2019-05-20T03:44:10.855Z,100312.75
2019-05-20T03:47:33.961Z,100307.23
2019-05-20T03:50:57.123Z,100309.13
2019-05-20T03:54:20.237Z,100310.45
2019-05-20T03:57:43.371Z,100309.14
2019-05-20T04:01:06.468Z,100311.97
2019-05-20T04:04:29.555Z,100315.23
2019-05-20T04:07:52.709Z,100317.72
2019-05-20T04:11:16.051Z,100322.48
2019-05-20T04:14:39.232Z,100321.42
2019-05-20T04:18:02.741Z,100327.31
2019-05-20T04:21:26.302Z,100328.13
2019-05-20T04:24:49.575Z,100325.88
2019-05-20T04:28:12.800Z,100324.02
2019-05-20T04:31:36.240Z,100332.02
2019-05-20T04:35:19.812Z,100341.38
2019-05-20T04:38:26.084Z,100336.83
2019-05-20T04:41:49.383Z,100342.37
2019-05-20T04:45:13.077Z,100341.55
2019-05-20T04:48:36.234Z,100336.05
2019-05-20T04:51:59.390Z,100339.42
2019-05-20T04:55:22.574Z,100336.34
2019-05-20T04:58:45.665Z,100331.95
2019-05-20T05:02:08.987Z,100331.20
2019-05-20T05:05:37.615Z,100328.34
2019-05-20T05:08:57.004Z,100328.09
2019-05-20T05:12:33.731Z,100329.52
2019-05-20T05:15:57.334Z,100323.03
2019-05-20T05:19:20.768Z,100321.34
2019-05-20T05:22:44.009Z,100325.70
2019-05-20T05:26:07.086Z,100331.36
2019-05-20T05:29:33.088Z,100339.87
2019-05-20T05:32:59.877Z,100348.36
2019-05-20T05:36:23.025Z,100343.86
2019-05-20T05:39:46.404Z,100347.84
2019-05-20T05:43:09.590Z,100347.02
2019-05-20T05:46:32.635Z,100349.34
2019-05-20T05:49:55.763Z,100347.84
2019-05-20T05:53:18.936Z,100355.34
2019-05-20T05:56:42.055Z,100357.50
2019-05-20T06:00:10.213Z,100361.20
2019-05-20T06:03:33.617Z,100356.89
2019-05-20T06:06:56.876Z,100361.54
2019-05-20T06:10:21.540Z,100357.28
2019-05-20T06:13:44.588Z,100366.56
2019-05-20T06:17:07.645Z,100362.05
2019-05-20T06:20:30.745Z,100361.95
2019-05-20T06:23:54.328Z,100365.07
2019-05-20T06:27:17.776Z,100366.40
2019-05-20T06:30:43.998Z,100372.03
2019-05-20T06:34:07.157Z,100364.36
2019-05-20T06:37:34.340Z,100361.90
2019-05-20T06:40:57.570Z,100374.37
2019-05-20T06:44:20.897Z,100375.22
2019-05-20T06:47:45.036Z,100373.02
2019-05-20T06:51:08.294Z,100377.57
2019-05-20T06:54:34.677Z,100373.61
2019-05-20T06:57:57.909Z,100389.78
2019-05-20T07:01:21.085Z,100392.78
2019-05-20T07:04:44.334Z,100391.56
2019-05-20T07:08:08.123Z,100386.97
2019-05-20T07:11:31.529Z,100388.67
2019-05-20T07:14:54.794Z,100383.50
2019-05-20T07:18:18.070Z,100394.45
2019-05-20T07:21:41.704Z,100403.41
2019-05-20T07:25:05.171Z,100416.20
2019-05-20T07:28:28.607Z,100412.51
2019-05-20T07:31:51.785Z,100418.55
2019-05-20T07:35:28.887Z,100423.77
2019-05-20T07:38:40.389Z,100425.64
2019-05-20T07:42:04.829Z,100425.11
2019-05-20T07:45:30.326Z,100421.70
2019-05-20T07:48:53.710Z,100424.96
2019-05-20T07:52:18.130Z,100420.94
2019-05-20T07:55:53.714Z,100415.63
2019-05-20T07:59:21.688Z,100415.98
2019-05-20T08:02:44.728Z,100415.31
2019-05-20T08:06:08.330Z,100422.83
2019-05-20T08:09:31.460Z,100425.33
2019-05-20T08:12:54.507Z,100421.55
2019-05-20T08:16:18.670Z,100416.24
2019-05-20T08:19:41.983Z,100424.68
2019-05-20T08:23:05.242Z,100438.88
2019-05-20T08:26:28.454Z,100434.26
2019-05-20T08:29:51.785Z,100435.94
2019-05-20T08:33:14.805Z,100447.59
2019-05-20T08:36:38.090Z,100445.29
2019-05-20T08:40:01.415Z,100447.81
2019-05-20T08:43:24.875Z,100440.27
2019-05-20T08:46:48.127Z,100450.02
2019-05-20T08:50:15.916Z,100453.58
2019-05-20T08:53:36.220Z,100454.52
2019-05-20T08:56:59.285Z,100456.25
2019-05-20T09:00:24.667Z,100456.62
2019-05-20T09:03:48.198Z,100450.36
2019-05-20T09:07:11.422Z,100448.55
2019-05-20T09:10:35.184Z,100462.19
2019-05-20T09:13:58.215Z,100467.59
2019-05-20T09:17:21.507Z,100467.42
2019-05-20T09:20:44.884Z,100463.48
2019-05-20T09:24:07.973Z,100463.66
2019-05-20T09:27:31.282Z,100468.17
2019-05-20T09:30:56.636Z,100463.35
2019-05-20T09:34:19.898Z,100461.27
2019-05-20T09:37:43.063Z,100461.56
2019-05-20T09:41:06.487Z,100454.09
2019-05-20T09:44:29.725Z,100453.00
2019-05-20T09:47:53.125Z,100461.73
2019-05-20T09:51:16.486Z,100454.44
2019-05-20T09:54:39.798Z,100457.28
2019-05-20T09:58:03.134Z,100449.12
2019-05-20T10:01:26.380Z,100454.63
2019-05-20T10:04:49.555Z,100454.95
2019-05-20T10:08:12.680Z,100462.70
2019-05-20T10:11:35.872Z,100467.59
2019-05-20T10:14:59.258Z,100463.66
2019-05-20T10:18:36.901Z,100464.58
2019-05-20T10:21:47.478Z,100461.17
2019-05-20T10:25:11.168Z,100460.38
2019-05-20T10:28:34.240Z,100470.30
2019-05-20T10:31:57.364Z,100459.03
2019-05-20T10:35:20.678Z,100467.75
2019-05-20T10:38:58.048Z,100473.39
2019-05-20T10:42:09.384Z,100464.37
2019-05-20T10:45:33.661Z,100473.29
2019-05-20T10:48:57.049Z,100484.19
2019-05-20T10:52:20.543Z,100496.78
2019-05-20T10:55:43.901Z,100493.06
2019-05-20T10:59:11.760Z,100492.41
2019-05-20T11:02:32.192Z,100495.70
2019-05-20T11:05:55.321Z,100499.84
2019-05-20T11:09:18.662Z,100499.30
2019-05-20T11:12:44.688Z,100502.45
2019-05-20T11:16:08.644Z,100509.43
2019-05-20T11:19:31.886Z,100508.61
2019-05-20T11:22:54.983Z,100503.77
2019-05-20T11:26:18.942Z,100515.80
2019-05-20T11:29:42.346Z,100519.22
2019-05-20T11:33:05.481Z,100525.27
2019-05-20T11:36:28.712Z,100525.77
2019-05-20T11:39:52.179Z,100518.60
2019-05-20T11:43:15.310Z,100517.84
2019-05-20T11:46:38.555Z,100524.47
2019-05-20T11:50:01.715Z,100527.45
2019-05-20T11:53:25.012Z,100521.50
2019-05-20T11:56:48.193Z,100529.69
2019-05-20T12:00:11.785Z,100525.08
2019-05-20T12:03:34.905Z,100526.13
2019-05-20T12:06:58.077Z,100526.70
2019-05-20T12:10:23.196Z,100523.74
2019-05-20T12:13:46.279Z,100518.70
2019-05-20T12:17:09.362Z,100522.98
2019-05-20T12:20:32.491Z,100519.73
2019-05-20T12:23:55.858Z,100520.14
2019-05-20T12:27:19.092Z,100518.98
2019-05-20T12:30:42.493Z,100517.51
2019-05-20T12:34:05.639Z,100508.95
2019-05-20T12:37:29.194Z,100511.59
2019-05-20T12:40:53.471Z,100512.48
2019-05-20T12:44:16.598Z,100510.41
2019-05-20T12:47:42.488Z,100512.12
2019-05-20T12:51:05.661Z,100517.59
2019-05-20T12:54:28.731Z,100516.16
2019-05-20T12:57:51.814Z,100525.02
2019-05-20T13:01:14.924Z,100527.26
2019-05-20T13:04:38.021Z,100515.51
2019-05-20T13:08:01.225Z,100512.09
2019-05-20T13:11:24.377Z,100510.58
2019-05-20T13:14:47.554Z,100505.63
2019-05-20T13:18:10.774Z,100504.62
2019-05-20T13:21:34.038Z,100502.22
2019-05-20T13:24:57.212Z,100508.89
2019-05-20T13:28:20.604Z,100506.48
2019-05-20T13:31:43.726Z,100507.66
2019-05-20T13:35:07.000Z,100509.58
2019-05-20T13:38:31.385Z,100511.20
2019-05-20T13:41:54.617Z,100505.70
2019-05-20T13:45:17.872Z,100503.02
2019-05-20T13:48:41.075Z,100506.84
2019-05-20T13:52:04.243Z,100513.98
2019-05-20T13:55:33.233Z,100507.96
2019-05-20T13:58:56.541Z,100515.06
2019-05-20T14:02:19.682Z,100510.08
2019-05-20T14:05:42.976Z,100508.19
2019-05-20T14:09:07.585Z,100506.86
2019-05-20T14:12:31.238Z,100500.69
2019-05-20T14:15:54.621Z,100500.39
2019-05-20T14:19:17.716Z,100496.44
2019-05-20T14:22:40.937Z,100500.76
2019-05-20T14:26:04.142Z,100494.16
2019-05-20T14:29:27.368Z,100500.27
2019-05-20T14:32:50.785Z,100500.66
2019-05-20T14:36:37.262Z,100500.00
2019-05-20T14:39:38.997Z,100498.80
2019-05-20T14:43:02.286Z,100498.54
2019-05-20T14:46:25.480Z,100497.94
2019-05-20T14:49:48.614Z,100504.11
2019-05-20T14:53:11.715Z,100500.02
2019-05-20T14:56:34.792Z,100499.97
2019-05-20T14:59:57.916Z,100506.55
2019-05-20T15:03:21.283Z,100502.22
2019-05-20T15:06:44.528Z,100505.09
2019-05-20T15:10:08.369Z,100496.55
2019-05-20T15:13:32.476Z,100488.26
2019-05-20T15:16:55.851Z,100491.31
2019-05-20T15:20:19.210Z,100497.67
2019-05-20T15:23:42.382Z,100496.31
2019-05-20T15:27:05.565Z,100504.24
2019-05-20T15:30:28.689Z,100504.59
2019-05-20T15:33:51.850Z,100500.58
2019-05-20T15:37:15.174Z,100504.91
2019-05-20T15:40:38.373Z,100512.78
2019-05-20T15:44:01.478Z,100498.66
2019-05-20T15:47:24.735Z,100498.70
2019-05-20T15:50:47.817Z,100499.52
2019-05-20T15:54:10.961Z,100501.77
2019-05-20T15:57:34.036Z,100498.80
2019-05-20T16:00:57.096Z,100499.76
2019-05-20T16:04:20.273Z,100492.70
2019-05-20T16:07:43.421Z,100488.61
2019-05-20T16:11:07.248Z,100492.88
2019-05-20T16:14:30.557Z,100489.84
2019-05-20T16:17:53.769Z,100486.12
2019-05-20T16:21:16.936Z,100492.53
2019-05-20T16:24:40.833Z,100487.43
2019-05-20T16:28:04.272Z,100471.19
2019-05-20T16:31:28.013Z,100479.10
2019-05-20T16:34:51.156Z,100484.55
2019-05-20T16:38:14.420Z,100492.48
2019-05-20T16:41:37.515Z,100498.51
2019-05-20T16:45:00.740Z,100491.43
2019-05-20T16:48:24.624Z,100488.06
2019-05-20T16:51:47.786Z,100484.50
2019-05-20T16:55:10.996Z,100488.41
2019-05-20T16:58:34.283Z,100489.09
2019-05-20T17:01:57.335Z,100485.11
2019-05-20T17:05:20.822Z,100488.17
2019-05-20T17:08:44.016Z,100491.75
2019-05-20T17:12:07.145Z,100486.21
2019-05-20T17:15:30.299Z,100492.48
2019-05-20T17:19:28.796Z,100498.80
2019-05-20T17:22:52.974Z,100498.63
2019-05-20T17:26:16.170Z,100503.98
2019-05-20T17:29:39.411Z,100509.16
2019-05-20T17:33:04.689Z,100504.38
2019-05-20T17:36:27.914Z,100511.16
2019-05-20T17:39:51.063Z,100508.54
2019-05-20T17:43:14.299Z,100516.86
2019-05-20T17:46:37.519Z,100522.80
2019-05-20T17:50:01.196Z,100523.07
2019-05-20T17:53:24.417Z,100515.80
2019-05-20T17:56:47.873Z,100518.16
2019-05-20T18:00:16.863Z,100514.73
2019-05-20T18:03:40.394Z,100524.22
2019-05-20T18:07:03.596Z,100522.37
2019-05-20T18:10:26.906Z,100521.58
2019-05-20T18:13:51.281Z,100524.23
2019-05-20T18:17:14.836Z,100532.22
2019-05-20T18:20:38.911Z,100542.78
2019-05-20T18:24:02.532Z,100549.28
2019-05-20T18:27:26.375Z,100556.88
2019-05-20T18:30:49.529Z,100551.88
2019-05-20T18:34:13.808Z,100557.75
2019-05-20T18:37:37.289Z,100560.08
2019-05-20T18:41:00.927Z,100566.60
2019-05-20T18:44:24.109Z,100557.05
2019-05-20T18:47:47.362Z,100562.97
2019-05-20T18:51:10.720Z,100558.72
2019-05-20T18:54:34.561Z,100561.34
2019-05-20T18:57:57.638Z,100553.94
2019-05-20T19:01:21.657Z,100553.16
2019-05-20T19:04:46.539Z,100554.69
2019-05-20T19:08:09.749Z,100559.70
2019-05-20T19:11:33.797Z,100560.75
2019-05-20T19:14:58.160Z,100564.12
2019-05-20T19:18:22.061Z,100561.41
2019-05-20T19:21:52.048Z,100558.83
2019-05-20T19:25:15.508Z,100559.84
2019-05-20T19:28:38.925Z,100568.42
2019-05-20T19:32:02.510Z,100570.20
2019-05-20T19:35:26.933Z,100576.73
2019-05-20T19:38:50.317Z,100572.67
2019-05-20T19:42:13.994Z,100577.75
2019-05-20T19:45:37.703Z,100570.03
2019-05-20T19:49:01.013Z,100572.59
2019-05-20T19:52:24.260Z,100573.16
2019-05-20T19:55:47.548Z,100576.64
2019-05-20T19:59:10.861Z,100577.47
2019-05-20T20:02:34.591Z,100585.26
2019-05-20T20:06:01.317Z,100574.14
2019-05-20T20:09:26.239Z,100576.52
2019-05-20T20:12:53.413Z,100576.42
2019-05-20T20:16:18.086Z,100575.94
2019-05-20T20:19:41.850Z,100596.80
2019-05-20T20:23:05.396Z,100598.33
2019-05-20T20:26:28.869Z,100592.87
2019-05-20T20:29:51.945Z,100592.89
2019-05-20T20:33:15.058Z,100591.94
2019-05-20T20:36:38.527Z,100598.98
2019-05-20T20:40:01.624Z,100595.86
2019-05-20T20:43:24.855Z,100603.23
2019-05-20T20:46:48.141Z,100601.45
2019-05-20T20:50:11.930Z,100604.33
2019-05-20T20:53:34.959Z,100600.89
2019-05-20T20:56:58.114Z,100608.12
2019-05-20T21:00:21.616Z,100605.38
2019-05-20T21:03:44.703Z,100612.61
2019-05-20T21:07:08.791Z,100608.17
2019-05-20T21:10:31.965Z,100609.30
2019-05-20T21:13:55.139Z,100606.70
2019-05-20T21:17:18.408Z,100617.75
2019-05-20T21:20:41.921Z,100617.05
2019-05-20T21:24:04.987Z,100620.48
2019-05-20T21:27:28.189Z,100617.41
2019-05-20T21:30:51.567Z,100616.59
2019-05-20T21:34:14.712Z,100612.27
2019-05-20T21:37:37.874Z,100617.55
2019-05-20T21:41:01.037Z,100623.04
2019-05-20T21:44:24.155Z,100607.05
2019-05-20T21:47:47.422Z,100613.73
2019-05-20T21:51:10.786Z,100610.90
2019-05-20T21:54:33.939Z,100613.23
2019-05-20T21:57:57.187Z,100612.58
2019-05-20T22:01:20.406Z,100601.22
2019-05-20T22:04:43.956Z,100615.38
2019-05-20T22:08:07.411Z,100616.23
2019-05-20T22:11:30.583Z,100612.33
2019-05-20T22:14:53.864Z,100614.89
2019-05-20T22:18:17.028Z,100609.36
2019-05-20T22:21:47.094Z,100605.17
2019-05-20T22:25:10.291Z,100607.59
2019-05-20T22:28:33.498Z,100604.53
2019-05-20T22:31:56.605Z,100603.13
2019-05-20T22:35:19.777Z,100604.77
2019-05-20T22:38:42.902Z,100606.15
2019-05-20T22:42:06.230Z,100608.13
2019-05-20T22:45:29.447Z,100611.20
2019-05-20T22:48:52.572Z,100608.21
2019-05-20T22:52:15.680Z,100602.66
2019-05-20T22:55:38.786Z,100617.28
2019-05-20T22:59:01.943Z,100613.61
2019-05-20T23:02:25.065Z,100623.56
2019-05-20T23:05:48.173Z,100625.89
2019-05-20T23:09:14.798Z,100632.08
2019-05-20T23:12:36.664Z,100633.98
2019-05-20T23:15:59.879Z,100635.69
2019-05-20T23:19:22.980Z,100629.05
2019-05-20T23:22:46.103Z,100632.56
2019-05-20T23:26:09.220Z,100638.00
2019-05-20T23:29:32.308Z,100639.12
2019-05-20T23:32:55.446Z,100643.13
2019-05-20T23:36:18.527Z,100644.66
2019-05-20T23:39:41.903Z,100637.55
2019-05-20T23:44:14.488Z,100641.14
2019-05-20T23:52:37.699Z,100630.84
2019-05-20T23:56:00.842Z,100639.00
2019-05-20T23:59:23.940Z,100635.25
